Tyaskin, Maryland
Current Conditions -  °F | °C
As of 11:42 AM on Tuesday 27 Jan 2015 (Local Time) from KCGE Reporting Station
Broken Clouds Broken Clouds  
Wind Chill: 25°   Ceiling: 3900
Heat Index: 34°   Visibility: 10mi
Dew Point: 27°   Wind: 13mph
Humidity: 75%   Direction: 320°NW
Pressure: 29.76"   Gusts: 21mph
Location:  38.32°N, 75.87°W
Report Text: KCGE 271642Z AUTO 32011G18KT 10SM SCT018 BKN039 01/M03 A2976 RMK AO1
Loading
Personal Weather Stations






























Interactive Weather Map New forecast layout! Learn more

10-Day Weather Forecast

Advertisements
Track Severe Weather on mobile